Yasemin — 9HA2114 — position and weather

sailwx.info

Track history (hours):
 
Tides and Currents Weather Stations Pressure Air Temp Water Temp Dewpoint Dewpoint Depression Visibility Wind Speed Wind Dir Waves Ship Positions

Yasemin

Last reported at 2017-Mar-20 18:15 UTC. Time now 2017-Mar-23 14:09 UTC.
Position N 37°59' E 009°23'.

Length 105 m; draft 7.3 m.

Type: Cargo ship. MMSI: 249988000.

Date/timePositionNaut miles runAvg speedWind from/ knotsBaromVisibWave heightAir tempDewpointWater temp
2017-Mar-20 18:15N 37°59' E 009°23'5411.4
2017-Mar-20 13:32N 38°01' E 010°32'3511.0
2017-Mar-20 10:22N 38°03' E 011°16'911.3
2017-Mar-20 09:33N 38°03' E 011°28'5811.0
2017-Mar-20 04:15N 38°16' E 012°40'810.9
2017-Mar-20 03:32N 38°17' E 012°50'1111.0
2017-Mar-20 02:34N 38°17' E 013°04'1111.0
2017-Mar-20 01:33N 38°18' E 013°18'1211.7
2017-Mar-20 00:34N 38°15' E 013°32'1111.3
2017-Mar-19 23:34N 38°13' E 013°46'1111.0
2017-Mar-19 22:34N 38°12' E 014°00'3210.7
2017-Mar-19 19:33N 38°20' E 014°40'1010.5
2017-Mar-19 18:34N 38°19' E 014°53'1110.6
2017-Mar-19 17:33N 38°20' E 015°07'1110.7
2017-Mar-19 16:33N 38°20' E 015°21'1111.0
2017-Mar-19 15:33N 38°20' E 015°35'6 6.0
2017-Mar-19 14:33N 38°15' E 015°39'9 8.6
2017-Mar-19 13:34N 38°06' E 015°37'9 9.0
2017-Mar-19 12:34N 37°57' E 015°38'10 9.8
2017-Mar-19 11:33N 37°53' E 015°49'31 9.9
2017-Mar-19 08:27N 38°07' E 016°23'  
Track history (hours):
 
Tides and Currents Weather Stations Pressure Air Temp Water Temp Dewpoint Dewpoint Depression Visibility Wind Speed Wind Dir Waves Ship Positions

Yasemin

Last reported at 2017-Mar-20 18:15 UTC. Time now 2017-Mar-23 14:09 UTC.
Position N 37°59' E 009°23'.

Length 105 m; draft 7.3 m.

Type: Cargo ship. MMSI: 249988000.

Date/timePositionNaut miles runAvg speedWind from/ knotsBaromVisibWave heightAir tempDewpointWater temp
2017-Mar-20 18:15N 37°59' E 009°23'5411.4
2017-Mar-20 13:32N 38°01' E 010°32'3511.0
2017-Mar-20 10:22N 38°03' E 011°16'911.3
2017-Mar-20 09:33N 38°03' E 011°28'5811.0
2017-Mar-20 04:15N 38°16' E 012°40'810.9
2017-Mar-20 03:32N 38°17' E 012°50'1111.0
2017-Mar-20 02:34N 38°17' E 013°04'1111.0
2017-Mar-20 01:33N 38°18' E 013°18'1211.7
2017-Mar-20 00:34N 38°15' E 013°32'1111.3
2017-Mar-19 23:34N 38°13' E 013°46'1111.0
2017-Mar-19 22:34N 38°12' E 014°00'3210.7
2017-Mar-19 19:33N 38°20' E 014°40'1010.5
2017-Mar-19 18:34N 38°19' E 014°53'1110.6
2017-Mar-19 17:33N 38°20' E 015°07'1110.7
2017-Mar-19 16:33N 38°20' E 015°21'1111.0
2017-Mar-19 15:33N 38°20' E 015°35'6 6.0
2017-Mar-19 14:33N 38°15' E 015°39'9 8.6
2017-Mar-19 13:34N 38°06' E 015°37'9 9.0
2017-Mar-19 12:34N 37°57' E 015°38'10 9.8
2017-Mar-19 11:33N 37°53' E 015°49'31 9.9
2017-Mar-19 08:27N 38°07' E 016°23'  

Dump ship's entire track history